createdAt,value
2023-05-10T00:00:40.387Z,14.29
2023-05-10T00:01:42.272Z,14.26
2023-05-10T00:02:39.896Z,14.24
2023-05-10T00:03:39.360Z,14.23
2023-05-10T00:04:39.455Z,14.21
2023-05-10T00:05:39.576Z,14.19
2023-05-10T00:06:39.586Z,14.16
2023-05-10T00:07:39.029Z,14.14
2023-05-10T00:08:39.181Z,14.14
2023-05-10T00:09:39.351Z,14.15
2023-05-10T00:10:39.908Z,14.16
2023-05-10T00:11:39.877Z,14.17
2023-05-10T00:12:39.662Z,14.18
2023-05-10T00:13:39.608Z,14.18
2023-05-10T00:14:39.387Z,14.18
2023-05-10T00:15:39.518Z,14.19
2023-05-10T00:16:39.743Z,14.19
2023-05-10T00:17:39.573Z,14.20
2023-05-10T00:18:39.779Z,14.19
2023-05-10T00:19:39.994Z,14.20
2023-05-10T00:20:39.311Z,14.20
2023-05-10T00:21:39.334Z,14.19
2023-05-10T00:22:39.817Z,14.19
2023-05-10T00:23:40.303Z,14.19
2023-05-10T00:24:39.279Z,14.19
2023-05-10T00:25:39.620Z,14.19
2023-05-10T00:26:39.324Z,14.21
2023-05-10T00:27:39.639Z,14.19
2023-05-10T00:28:39.550Z,14.17
2023-05-10T00:29:39.521Z,14.18
2023-05-10T00:30:39.216Z,14.19
2023-05-10T00:31:53.312Z,14.18
2023-05-10T00:32:39.433Z,14.18
2023-05-10T00:33:39.591Z,14.18
2023-05-10T00:34:39.701Z,14.17
2023-05-10T00:35:39.481Z,14.16
2023-05-10T00:36:39.341Z,14.17
2023-05-10T00:37:39.126Z,14.17
2023-05-10T00:38:39.580Z,14.15
2023-05-10T00:39:39.503Z,14.15
2023-05-10T00:40:39.455Z,14.14
2023-05-10T00:41:39.173Z,14.16
2023-05-10T00:42:39.447Z,14.14
2023-05-10T00:43:39.501Z,14.14
2023-05-10T00:44:39.255Z,14.14
2023-05-10T00:45:39.802Z,14.14
2023-05-10T00:46:39.790Z,14.14
2023-05-10T00:47:39.937Z,14.14
2023-05-10T00:48:39.870Z,14.14
2023-05-10T00:49:44.661Z,14.14
2023-05-10T00:50:39.780Z,14.14
2023-05-10T00:51:40.006Z,14.12
2023-05-10T00:52:39.221Z,14.11
2023-05-10T00:53:39.340Z,14.11
2023-05-10T00:54:39.310Z,14.11
2023-05-10T00:55:39.438Z,14.10
2023-05-10T00:56:39.642Z,14.10
2023-05-10T00:58:01.910Z,14.09
2023-05-10T00:58:39.374Z,14.07
2023-05-10T00:59:39.506Z,14.07
2023-05-10T01:00:40.548Z,14.08
2023-05-10T01:01:39.377Z,14.09
2023-05-10T01:02:39.743Z,14.09
2023-05-10T01:03:39.840Z,14.09
2023-05-10T01:04:39.826Z,14.10
2023-05-10T01:05:40.163Z,14.10
2023-05-10T01:06:39.510Z,14.10
2023-05-10T01:07:39.683Z,14.07
2023-05-10T01:08:39.565Z,14.05
2023-05-10T01:09:39.124Z,14.04
2023-05-10T01:10:39.446Z,14.05
2023-05-10T01:11:39.203Z,14.05
2023-05-10T01:12:39.518Z,14.07
2023-05-10T01:13:39.574Z,14.07
2023-05-10T01:14:39.292Z,14.06
2023-05-10T01:15:39.460Z,14.03
2023-05-10T01:16:39.418Z,14.03
2023-05-10T01:17:39.592Z,14.04
2023-05-10T01:18:39.740Z,14.05
2023-05-10T01:19:39.267Z,14.05
2023-05-10T01:20:39.479Z,14.06
2023-05-10T01:21:39.426Z,14.06
2023-05-10T01:22:39.197Z,14.07
2023-05-10T01:23:39.552Z,14.06
2023-05-10T01:24:40.015Z,14.06
2023-05-10T01:25:39.318Z,14.06
2023-05-10T01:26:39.416Z,14.05
2023-05-10T01:27:39.421Z,14.03
2023-05-10T01:28:39.164Z,14.04
2023-05-10T01:29:39.215Z,14.05
2023-05-10T01:30:40.003Z,14.05
2023-05-10T01:31:39.574Z,14.05
2023-05-10T01:32:39.398Z,14.06
2023-05-10T01:33:39.453Z,14.05
2023-05-10T01:34:39.668Z,14.04
2023-05-10T01:35:40.164Z,14.01
2023-05-10T01:36:39.610Z,14.00
2023-05-10T01:37:39.389Z,13.99
2023-05-10T01:38:39.268Z,14.00
2023-05-10T01:39:39.377Z,14.01
2023-05-10T01:40:39.490Z,13.99
2023-05-10T01:41:39.506Z,13.98
2023-05-10T01:42:39.458Z,13.97
2023-05-10T01:43:39.242Z,13.97
2023-05-10T01:44:39.357Z,13.98
2023-05-10T01:45:39.785Z,14.01
2023-05-10T01:46:39.804Z,14.01
2023-05-10T01:47:40.178Z,14.00
2023-05-10T01:48:39.881Z,14.01
2023-05-10T01:49:40.293Z,14.01
2023-05-10T01:50:39.744Z,14.01
2023-05-10T01:51:39.545Z,14.01
2023-05-10T01:52:40.032Z,14.00
2023-05-10T01:53:39.294Z,14.01
2023-05-10T01:54:39.265Z,14.01
2023-05-10T01:55:39.163Z,14.01
2023-05-10T01:56:39.482Z,14.01
2023-05-10T01:57:39.735Z,14.01
2023-05-10T01:58:39.702Z,14.00
2023-05-10T01:59:39.744Z,14.00
2023-05-10T02:00:40.591Z,14.01
2023-05-10T02:01:39.573Z,14
2023-05-10T02:02:40.042Z,14.00
2023-05-10T02:03:39.214Z,14.00
2023-05-10T02:04:39.126Z,14.00
2023-05-10T02:05:39.343Z,14.01
2023-05-10T02:06:39.582Z,14.02
2023-05-10T02:07:39.451Z,14.03
2023-05-10T02:08:39.393Z,14.04
2023-05-10T02:09:39.337Z,14.04
2023-05-10T02:10:39.192Z,14.03
2023-05-10T02:11:39.317Z,14.03
2023-05-10T02:12:39.588Z,14.02
2023-05-10T02:13:39.768Z,14.02
2023-05-10T02:14:39.916Z,14.03
2023-05-10T02:15:39.952Z,14.05
2023-05-10T02:16:40.082Z,14.05
2023-05-10T02:17:39.295Z,14.06
2023-05-10T02:18:39.802Z,14.05
2023-05-10T02:19:39.824Z,14.06
2023-05-10T02:20:40.874Z,14.06
2023-05-10T02:21:39.974Z,14.05
2023-05-10T02:22:39.593Z,14.03
2023-05-10T02:23:39.647Z,14.02
2023-05-10T02:24:39.680Z,14.02
2023-05-10T02:25:40.531Z,14.03
2023-05-10T02:26:39.473Z,14.03
2023-05-10T02:27:39.548Z,14.04
2023-05-10T02:28:39.571Z,14.05
2023-05-10T02:29:39.500Z,14.04
2023-05-10T02:30:39.621Z,14.05
2023-05-10T02:31:39.961Z,14.05
2023-05-10T02:32:39.072Z,14.05
2023-05-10T02:33:39.058Z,14.05
2023-05-10T02:34:39.086Z,14.05
2023-05-10T02:35:39.443Z,14.04
2023-05-10T02:36:39.454Z,14.05
2023-05-10T02:37:39.349Z,14.03
2023-05-10T02:38:39.495Z,14.03
2023-05-10T02:39:39.568Z,14.03
2023-05-10T02:40:43.298Z,14.04
2023-05-10T02:41:39.427Z,14.03
2023-05-10T02:42:39.517Z,14.03
2023-05-10T02:43:39.505Z,14.02
2023-05-10T02:44:39.406Z,14.01
2023-05-10T02:45:39.671Z,14.00
2023-05-10T02:46:39.679Z,14.01
2023-05-10T02:47:39.815Z,14.01
2023-05-10T02:48:39.806Z,13.99
2023-05-10T02:49:39.911Z,14.01
2023-05-10T02:50:40.126Z,14.00
2023-05-10T02:51:39.616Z,14.00
2023-05-10T02:52:39.405Z,14.01
2023-05-10T02:53:39.622Z,14.01
2023-05-10T02:54:47.415Z,14.02
2023-05-10T02:55:39.563Z,14.00
2023-05-10T02:56:39.528Z,14.00
2023-05-10T02:57:39.708Z,14.01
2023-05-10T02:58:39.739Z,14.00
2023-05-10T02:59:39.680Z,14
2023-05-10T03:00:40.985Z,13.99
2023-05-10T03:01:39.200Z,14
2023-05-10T03:02:53.283Z,13.98
2023-05-10T03:03:38.928Z,13.99
2023-05-10T03:04:39.889Z,14
2023-05-10T03:05:39.984Z,13.99
2023-05-10T03:06:39.003Z,13.98
2023-05-10T03:07:39.112Z,13.98
2023-05-10T03:08:39.522Z,13.99
2023-05-10T03:09:39.446Z,13.98
2023-05-10T03:10:39.572Z,13.97
2023-05-10T03:11:39.804Z,13.97
2023-05-10T03:12:39.940Z,13.95
2023-05-10T03:13:40.227Z,13.94
2023-05-10T03:14:44.272Z,13.93
2023-05-10T03:15:39.723Z,13.95
2023-05-10T03:16:39.484Z,13.96
2023-05-10T03:17:39.399Z,13.97
2023-05-10T03:18:39.048Z,13.97
2023-05-10T03:19:38.810Z,13.96
2023-05-10T03:20:39.833Z,13.96
2023-05-10T03:21:39.734Z,13.96
2023-05-10T03:22:39.539Z,13.97
2023-05-10T03:23:39.427Z,13.97
2023-05-10T03:24:39.471Z,13.98
2023-05-10T03:25:39.118Z,13.97
2023-05-10T03:26:39.307Z,13.97
2023-05-10T03:27:39.463Z,13.97
2023-05-10T03:28:39.451Z,13.97
2023-05-10T03:29:39.423Z,13.97
2023-05-10T03:30:47.817Z,13.97
2023-05-10T03:31:40.162Z,13.96
2023-05-10T03:32:39.750Z,13.97
2023-05-10T03:33:39.869Z,13.97
2023-05-10T03:34:39.863Z,13.96
2023-05-10T03:35:39.874Z,13.95
2023-05-10T03:36:53.501Z,13.97
2023-05-10T03:37:39.278Z,13.97
2023-05-10T03:38:39.419Z,13.96
2023-05-10T03:39:39.164Z,13.95
2023-05-10T03:40:39.652Z,13.93
2023-05-10T03:41:39.701Z,13.93
2023-05-10T03:42:39.687Z,13.93
2023-05-10T03:43:39.783Z,13.93
2023-05-10T03:44:39.723Z,13.94
2023-05-10T03:45:39.901Z,13.96
2023-05-10T03:46:39.784Z,13.97
2023-05-10T03:47:39.707Z,13.96
2023-05-10T03:48:39.565Z,13.97
2023-05-10T03:49:39.749Z,13.97
2023-05-10T03:50:40.335Z,13.97
2023-05-10T03:51:39.805Z,13.97
2023-05-10T03:52:40.158Z,13.97
2023-05-10T03:53:39.631Z,13.97
2023-05-10T03:54:39.666Z,13.98
2023-05-10T03:55:39.845Z,13.97
2023-05-10T03:56:40.099Z,13.96
2023-05-10T03:57:39.841Z,13.95
2023-05-10T03:58:40.185Z,13.94
2023-05-10T03:59:39.538Z,13.94
2023-05-10T04:01:00.101Z,13.93
2023-05-10T04:01:39.201Z,13.92
2023-05-10T04:02:39.704Z,13.91
2023-05-10T04:03:40.470Z,13.90
2023-05-10T04:04:39.677Z,13.90
2023-05-10T04:05:39.852Z,13.90
2023-05-10T04:06:39.957Z,13.90
2023-05-10T04:07:39.603Z,13.90
2023-05-10T04:08:39.995Z,13.89
2023-05-10T04:09:39.533Z,13.90
2023-05-10T04:10:40.397Z,13.91
2023-05-10T04:11:39.600Z,13.92
2023-05-10T04:12:39.694Z,13.90
2023-05-10T04:13:40.011Z,13.92
2023-05-10T04:14:39.496Z,13.90
2023-05-10T04:15:39.873Z,13.91
2023-05-10T04:16:39.825Z,13.91
2023-05-10T04:17:39.964Z,13.91
2023-05-10T04:18:39.394Z,13.94
2023-05-10T04:19:39.505Z,13.92
2023-05-10T04:21:39.576Z,13.92
2023-05-10T04:22:39.906Z,13.92
2023-05-10T04:23:39.742Z,13.91
2023-05-10T04:24:39.870Z,13.91
2023-05-10T04:25:40.221Z,13.93
2023-05-10T04:26:39.206Z,13.94
2023-05-10T04:27:39.177Z,13.94
2023-05-10T04:28:39.435Z,13.94
2023-05-10T04:29:39.592Z,13.94
2023-05-10T04:30:40.093Z,13.93
2023-05-10T04:31:39.434Z,13.92
2023-05-10T04:32:39.843Z,13.92
2023-05-10T04:33:39.807Z,13.92
2023-05-10T04:34:39.918Z,13.93
2023-05-10T04:35:40.209Z,13.92
2023-05-10T04:36:39.725Z,13.92
2023-05-10T04:37:40.368Z,13.92
2023-05-10T04:38:40.185Z,13.92
2023-05-10T04:39:42.162Z,13.92
2023-05-10T04:40:40.078Z,13.92
2023-05-10T04:41:40.308Z,13.91
2023-05-10T04:42:40.409Z,13.90
2023-05-10T04:43:39.926Z,13.90
2023-05-10T04:44:40.379Z,13.89
2023-05-10T04:45:40.168Z,13.90
2023-05-10T04:46:39.990Z,13.92
2023-05-10T04:47:39.857Z,13.93
2023-05-10T04:48:39.871Z,13.94
2023-05-10T04:49:40.375Z,13.93
2023-05-10T04:50:40.177Z,13.93
2023-05-10T04:51:40.097Z,13.93
2023-05-10T04:52:39.559Z,13.93
2023-05-10T04:53:39.930Z,13.93
2023-05-10T04:54:40.209Z,13.92
2023-05-10T04:55:40.079Z,13.93
2023-05-10T04:56:39.847Z,13.93
2023-05-10T04:57:40.425Z,13.94
2023-05-10T04:58:39.852Z,13.94
2023-05-10T04:59:40.325Z,13.93
2023-05-10T05:00:41.016Z,13.93
2023-05-10T05:01:39.914Z,13.93
2023-05-10T05:02:40.552Z,13.94
2023-05-10T05:03:40.186Z,13.94
2023-05-10T05:04:39.696Z,13.94
2023-05-10T05:05:40.123Z,13.94
2023-05-10T05:06:39.660Z,13.94
2023-05-10T05:07:40.075Z,13.94
2023-05-10T05:08:39.892Z,13.95
2023-05-10T05:09:45.291Z,13.94
2023-05-10T05:10:39.856Z,13.93
2023-05-10T05:11:45.212Z,13.93
2023-05-10T05:12:39.699Z,13.94
2023-05-10T05:13:39.857Z,13.94
2023-05-10T05:14:40.153Z,13.93
2023-05-10T05:15:48.342Z,13.92
2023-05-10T05:16:41.212Z,13.92
2023-05-10T05:17:40.398Z,13.93
2023-05-10T05:18:40.950Z,13.93
2023-05-10T05:19:48.180Z,13.93
2023-05-10T05:20:40.666Z,13.94
2023-05-10T05:21:40.021Z,13.94
2023-05-10T05:22:39.585Z,13.94
2023-05-10T05:23:54.027Z,13.95
2023-05-10T05:24:39.605Z,13.95
2023-05-10T05:25:39.901Z,13.95
2023-05-10T05:26:40.048Z,13.95
2023-05-10T05:27:39.337Z,13.94
2023-05-10T05:28:39.850Z,13.94
2023-05-10T05:29:40.261Z,13.93
2023-05-10T05:30:40.036Z,13.95
2023-05-10T05:31:39.761Z,13.96
2023-05-10T05:32:40.191Z,13.96
2023-05-10T05:33:39.750Z,13.96
2023-05-10T05:34:40.245Z,13.97
2023-05-10T05:35:39.737Z,13.97
2023-05-10T05:36:40.197Z,13.97
2023-05-10T05:37:39.716Z,14.00
2023-05-10T05:38:40.040Z,13.99
2023-05-10T05:39:39.729Z,13.97
2023-05-10T05:40:40.163Z,13.96
2023-05-10T05:41:39.467Z,13.96
2023-05-10T05:42:39.989Z,13.97
2023-05-10T05:43:39.641Z,14.01
2023-05-10T05:44:39.879Z,14.00
2023-05-10T05:45:40.138Z,14.00
2023-05-10T05:46:40.110Z,13.98
2023-05-10T05:47:39.815Z,13.99
2023-05-10T05:48:40.325Z,14
2023-05-10T05:50:02.415Z,13.98
2023-05-10T05:50:40.160Z,13.99
2023-05-10T05:51:39.928Z,13.98
2023-05-10T05:52:40.628Z,13.99
2023-05-10T05:53:46.003Z,13.98
2023-05-10T05:54:39.995Z,13.98
2023-05-10T05:56:02.214Z,13.99
2023-05-10T05:56:40.715Z,14.00
2023-05-10T05:57:40.108Z,14.00
2023-05-10T05:58:39.870Z,13.99
2023-05-10T05:59:40.836Z,13.97
2023-05-10T06:00:41.407Z,13.95
2023-05-10T06:01:40.349Z,13.96
2023-05-10T06:02:40.398Z,13.96
2023-05-10T06:03:40.345Z,13.98
2023-05-10T06:04:42.692Z,13.98
2023-05-10T06:05:54.624Z,14
2023-05-10T06:06:39.893Z,14.02
2023-05-10T06:07:40.352Z,14.03
2023-05-10T06:08:40.305Z,14.04
2023-05-10T06:09:54.024Z,14.05
2023-05-10T06:10:40.528Z,14.04
2023-05-10T06:11:39.937Z,14.04
2023-05-10T06:12:40.518Z,14.03
2023-05-10T06:13:40.260Z,14.03
2023-05-10T06:14:39.831Z,14.06
2023-05-10T06:15:54.936Z,14.06
2023-05-10T06:16:40.612Z,14.07
2023-05-10T06:17:59.300Z,14.08
2023-05-10T06:18:40.444Z,14.09
2023-05-10T06:19:40.163Z,14.09
2023-05-10T06:20:40.346Z,14.06
2023-05-10T06:21:39.859Z,14.05
2023-05-10T06:22:40.609Z,14.05
2023-05-10T06:23:59.038Z,14.05
2023-05-10T06:24:39.999Z,14.05
2023-05-10T06:25:40.275Z,14.08
2023-05-10T06:26:40.191Z,14.12
2023-05-10T06:27:40.100Z,14.11
2023-05-10T06:28:39.977Z,14.11
2023-05-10T06:29:40.096Z,14.11
2023-05-10T06:30:40.477Z,14.10
2023-05-10T06:31:41.154Z,14.10
2023-05-10T06:32:40.108Z,14.11
2023-05-10T06:33:40.261Z,14.11
2023-05-10T06:34:40.076Z,14.11
2023-05-10T06:35:40.222Z,14.11
2023-05-10T06:36:39.949Z,14.11
2023-05-10T06:37:40.320Z,14.11
2023-05-10T06:38:40.314Z,14.10
2023-05-10T06:39:40.129Z,14.11
2023-05-10T06:40:39.843Z,14.15
2023-05-10T06:41:40.669Z,14.16
2023-05-10T06:42:39.972Z,14.14
2023-05-10T06:43:39.598Z,14.16
2023-05-10T06:44:40.348Z,14.18
2023-05-10T06:45:40.305Z,14.17
2023-05-10T06:46:40.026Z,14.18
2023-05-10T06:47:39.950Z,14.18
2023-05-10T06:48:39.738Z,14.19
2023-05-10T06:49:40.481Z,14.19
2023-05-10T06:50:40.445Z,14.20
2023-05-10T06:51:40.350Z,14.20
2023-05-10T06:52:40.036Z,14.20
2023-05-10T06:53:40.203Z,14.20
2023-05-10T06:54:39.646Z,14.21
2023-05-10T06:55:40.505Z,14.23
2023-05-10T06:56:40.347Z,14.24
2023-05-10T06:58:39.931Z,14.26
2023-05-10T06:59:40.779Z,14.26
2023-05-10T07:00:41.808Z,14.26
2023-05-10T07:01:40.762Z,14.27
2023-05-10T07:02:40.669Z,14.28
2023-05-10T07:03:40.822Z,14.29
2023-05-10T07:04:40.150Z,14.30
2023-05-10T07:05:40.843Z,14.30
2023-05-10T07:06:49.149Z,14.30
2023-05-10T07:07:40.138Z,14.31
2023-05-10T07:08:40.235Z,14.32
2023-05-10T07:09:40.188Z,14.32
2023-05-10T07:10:40.299Z,14.34
2023-05-10T07:11:39.923Z,14.34
2023-05-10T07:12:40.538Z,14.35
2023-05-10T07:13:40.316Z,14.36
2023-05-10T07:14:40.197Z,14.37
2023-05-10T07:15:40.594Z,14.37
2023-05-10T07:16:40.489Z,14.38
2023-05-10T07:17:43.158Z,14.40
2023-05-10T07:18:40.130Z,14.42
2023-05-10T07:19:40.049Z,14.41
2023-05-10T07:20:40.317Z,14.41
2023-05-10T07:21:40.033Z,14.43
2023-05-10T07:22:40.068Z,14.44
2023-05-10T07:23:40.990Z,14.43
2023-05-10T07:24:40.268Z,14.44
2023-05-10T07:25:40.550Z,14.46
2023-05-10T07:26:40.551Z,14.47
2023-05-10T07:27:40.125Z,14.49
2023-05-10T07:28:39.703Z,14.49
2023-05-10T07:29:40.168Z,14.48
2023-05-10T07:30:45.806Z,14.47
2023-05-10T07:31:40.462Z,14.48
2023-05-10T07:32:40.572Z,14.47
2023-05-10T07:33:40.402Z,14.48
2023-05-10T07:34:45.007Z,14.48
2023-05-10T07:35:40.067Z,14.48
2023-05-10T07:36:40.127Z,14.49
2023-05-10T07:37:40.326Z,14.52
2023-05-10T07:38:41.107Z,14.52
2023-05-10T07:39:43.601Z,14.54
2023-05-10T07:40:40.276Z,14.56
2023-05-10T07:41:40.402Z,14.54
2023-05-10T07:42:47.959Z,14.52
2023-05-10T07:43:40.451Z,14.52
2023-05-10T07:44:40.158Z,14.53
2023-05-10T07:45:40.273Z,14.55
2023-05-10T07:46:40.401Z,14.56
2023-05-10T07:47:40.131Z,14.57
2023-05-10T07:48:40.348Z,14.59
2023-05-10T07:49:40.444Z,14.59
2023-05-10T07:50:40.649Z,14.60
2023-05-10T07:51:40.634Z,14.61
2023-05-10T07:52:40.474Z,14.64
2023-05-10T07:53:40.335Z,14.65
2023-05-10T07:54:40.034Z,14.66
2023-05-10T07:55:41.024Z,14.68
2023-05-10T07:56:40.474Z,14.69
2023-05-10T07:57:40.997Z,14.69
2023-05-10T07:58:40.167Z,14.70
2023-05-10T07:59:40.136Z,14.74
2023-05-10T08:00:41.144Z,14.79
2023-05-10T08:01:40.365Z,14.79
2023-05-10T08:02:40.326Z,14.73
2023-05-10T08:03:40.492Z,14.73
2023-05-10T08:04:40.714Z,14.72
2023-05-10T08:05:41.032Z,14.70
2023-05-10T08:06:39.827Z,14.69
2023-05-10T08:07:40.339Z,14.69
2023-05-10T08:08:40.131Z,14.66
2023-05-10T08:09:39.980Z,14.62
2023-05-10T08:10:45.002Z,14.56
2023-05-10T08:11:40.436Z,14.53
2023-05-10T08:12:40.259Z,14.51
2023-05-10T08:13:39.984Z,14.47
2023-05-10T08:14:39.816Z,14.44
2023-05-10T08:15:40.812Z,14.44
2023-05-10T08:16:45.495Z,14.42
2023-05-10T08:17:40.614Z,14.40
2023-05-10T08:18:40.133Z,14.39
2023-05-10T08:19:40.122Z,14.40
2023-05-10T08:21:02.486Z,14.41
2023-05-10T08:21:40.543Z,14.41
2023-05-10T08:22:49.998Z,14.40
2023-05-10T08:23:40.559Z,14.37
2023-05-10T08:24:48.038Z,14.33
2023-05-10T08:25:39.913Z,14.31
2023-05-10T08:26:40.662Z,14.29
2023-05-10T08:27:40.654Z,14.30
2023-05-10T08:28:40.267Z,14.29
2023-05-10T08:29:49.657Z,14.31
2023-05-10T08:30:40.801Z,14.28
2023-05-10T08:31:40.655Z,14.27
2023-05-10T08:32:40.265Z,14.27
2023-05-10T08:33:41.523Z,14.28
2023-05-10T08:34:40.984Z,14.26
2023-05-10T08:35:40.113Z,14.21
2023-05-10T08:36:40.199Z,14.20
2023-05-10T08:37:39.738Z,14.20
2023-05-10T08:38:40.457Z,14.20
2023-05-10T08:39:46.289Z,14.21
2023-05-10T08:40:40.470Z,14.22
2023-05-10T08:41:40.470Z,14.22
2023-05-10T08:42:59.100Z,14.25
2023-05-10T08:43:39.620Z,14.24
2023-05-10T08:44:40.532Z,14.22
2023-05-10T08:45:40.696Z,14.21
2023-05-10T08:46:40.859Z,14.22
2023-05-10T08:47:39.846Z,14.22
2023-05-10T08:48:40.416Z,14.22
2023-05-10T08:49:40.531Z,14.23
2023-05-10T08:50:40.651Z,14.25
2023-05-10T08:51:41.844Z,14.28
2023-05-10T08:52:40.054Z,14.32
2023-05-10T08:53:39.956Z,14.39
2023-05-10T08:54:40.653Z,14.38
2023-05-10T08:55:40.529Z,14.39
2023-05-10T08:56:40.354Z,14.37
2023-05-10T08:57:39.998Z,14.37
2023-05-10T08:58:39.973Z,14.39
2023-05-10T08:59:41.614Z,14.40
2023-05-10T09:01:03.361Z,14.39
2023-05-10T09:01:40.792Z,14.40
2023-05-10T09:02:40.779Z,14.43
2023-05-10T09:03:40.601Z,14.45
2023-05-10T09:04:40.748Z,14.46
2023-05-10T09:05:40.504Z,14.46
2023-05-10T09:06:40.453Z,14.46
2023-05-10T09:07:40.296Z,14.44
2023-05-10T09:08:40.035Z,14.46
2023-05-10T09:09:39.849Z,14.48
2023-05-10T09:11:13.015Z,14.51
2023-05-10T09:11:45.953Z,14.53
2023-05-10T09:13:40.526Z,14.58
2023-05-10T09:14:40.390Z,14.58
2023-05-10T09:15:40.754Z,14.61
2023-05-10T09:16:41.013Z,14.61
2023-05-10T09:17:40.409Z,14.59
2023-05-10T09:18:43.513Z,14.59
2023-05-10T09:19:40.456Z,14.59
2023-05-10T09:20:40.583Z,14.65
2023-05-10T09:21:40.832Z,14.63
2023-05-10T09:22:40.608Z,14.61
2023-05-10T09:23:40.839Z,14.61
2023-05-10T09:24:40.601Z,14.62
2023-05-10T09:25:40.470Z,14.63
2023-05-10T09:26:40.130Z,14.65
2023-05-10T09:27:39.682Z,14.63
2023-05-10T09:28:40.393Z,14.61
2023-05-10T09:29:40.652Z,14.61
2023-05-10T09:30:40.750Z,14.60
2023-05-10T09:31:40.836Z,14.64
2023-05-10T09:32:40.580Z,14.68
2023-05-10T09:33:40.759Z,14.71
2023-05-10T09:34:40.111Z,14.66
2023-05-10T09:35:42.836Z,14.67
2023-05-10T09:36:40.686Z,14.72
2023-05-10T09:37:40.623Z,14.68
2023-05-10T09:38:40.257Z,14.68
2023-05-10T09:39:40.428Z,14.70
2023-05-10T09:40:40.779Z,14.72
2023-05-10T09:41:40.830Z,14.75
2023-05-10T09:42:40.408Z,14.76
2023-05-10T09:43:40.333Z,14.86
2023-05-10T09:44:40.257Z,14.93
2023-05-10T09:45:40.516Z,14.92
2023-05-10T09:46:40.656Z,14.93
2023-05-10T09:47:40.829Z,14.97
2023-05-10T09:48:41.029Z,14.95
2023-05-10T09:49:39.832Z,14.96
2023-05-10T09:50:40.597Z,15.01
2023-05-10T09:51:40.252Z,15.07
2023-05-10T09:52:40.361Z,15.06
2023-05-10T09:53:40.794Z,15.02
2023-05-10T09:54:40.760Z,14.98
2023-05-10T09:55:45.797Z,14.99
2023-05-10T09:56:40.233Z,14.98
2023-05-10T09:57:39.981Z,15.00
2023-05-10T09:58:40.407Z,15.04
2023-05-10T09:59:45.455Z,15.06
2023-05-10T10:00:41.691Z,15.06
2023-05-10T10:01:45.680Z,14.99
2023-05-10T10:02:40.664Z,14.97
2023-05-10T10:03:40.613Z,15.05
2023-05-10T10:04:40.843Z,15.04
2023-05-10T10:05:41.022Z,15.07
2023-05-10T10:06:45.979Z,15.06
2023-05-10T10:07:48.098Z,15.06
2023-05-10T10:08:40.225Z,15.06
2023-05-10T10:09:40.086Z,15.03
2023-05-10T10:10:40.134Z,15.02
2023-05-10T10:11:40.114Z,15.03
2023-05-10T10:12:40.017Z,15.07
2023-05-10T10:13:39.804Z,15.05
2023-05-10T10:14:40.473Z,15.07
2023-05-10T10:15:40.586Z,15.17
2023-05-10T10:16:51.613Z,15.18
2023-05-10T10:17:55.115Z,15.16
2023-05-10T10:18:40.329Z,15.15
2023-05-10T10:19:54.541Z,15.18
2023-05-10T10:20:40.039Z,15.19
2023-05-10T10:21:39.794Z,15.20
2023-05-10T10:22:40.465Z,15.26
2023-05-10T10:23:54.184Z,15.22
2023-05-10T10:24:40.380Z,15.24
2023-05-10T10:25:40.270Z,15.24
2023-05-10T10:26:39.932Z,15.22
2023-05-10T10:27:54.407Z,15.22
2023-05-10T10:28:42.315Z,15.24
2023-05-10T10:29:40.174Z,15.27
2023-05-10T10:30:40.510Z,15.32
2023-05-10T10:31:59.350Z,15.30
2023-05-10T10:32:40.243Z,15.34
2023-05-10T10:34:01.231Z,15.38
2023-05-10T10:34:39.945Z,15.42
2023-05-10T10:35:41.076Z,15.44
2023-05-10T10:36:39.907Z,15.54
2023-05-10T10:37:40.768Z,15.52
2023-05-10T10:38:40.858Z,15.51
2023-05-10T10:39:41.188Z,15.57
2023-05-10T10:40:40.340Z,15.61
2023-05-10T10:41:40.665Z,15.68
2023-05-10T10:42:40.445Z,15.71
2023-05-10T10:43:40.257Z,15.68
2023-05-10T10:44:40.196Z,15.67
2023-05-10T10:45:48.052Z,15.71
2023-05-10T10:46:39.920Z,15.71
2023-05-10T10:47:48.906Z,15.69
2023-05-10T10:48:40.707Z,15.71
2023-05-10T10:49:40.903Z,15.77
2023-05-10T10:50:40.849Z,15.69
2023-05-10T10:51:49.128Z,15.64
2023-05-10T10:52:39.894Z,15.58
2023-05-10T10:53:41.014Z,15.57
2023-05-10T10:54:39.840Z,15.58
2023-05-10T10:55:41.321Z,15.54
2023-05-10T10:56:40.347Z,15.52
2023-05-10T10:58:11.408Z,15.54
2023-05-10T10:58:45.271Z,15.64
2023-05-10T11:00:11.418Z,15.67
2023-05-10T11:00:45.843Z,15.64
2023-05-10T11:01:55.281Z,15.61
2023-05-10T11:02:40.412Z,15.66
2023-05-10T11:03:40.229Z,15.64
2023-05-10T11:04:40.603Z,15.68
2023-05-10T11:05:40.913Z,15.63
2023-05-10T11:06:40.959Z,15.59
2023-05-10T11:08:12.470Z,15.59
2023-05-10T11:08:45.529Z,15.59
2023-05-10T11:09:40.344Z,15.62
2023-05-10T11:10:40.564Z,15.69
2023-05-10T11:11:40.502Z,15.70
2023-05-10T11:12:39.964Z,15.70
2023-05-10T11:13:40.751Z,15.72
2023-05-10T11:14:40.636Z,15.67
2023-05-10T11:15:40.557Z,15.72
2023-05-10T11:16:40.765Z,15.75
2023-05-10T11:18:00.014Z,15.74
2023-05-10T11:18:39.699Z,15.76
2023-05-10T11:19:40.535Z,15.76
2023-05-10T11:20:40.412Z,15.77
2023-05-10T11:21:40.074Z,15.80
2023-05-10T11:22:39.930Z,15.82
2023-05-10T11:23:40.581Z,15.85
2023-05-10T11:24:40.713Z,15.88
2023-05-10T11:25:41.458Z,15.82
2023-05-10T11:26:40.791Z,15.81
2023-05-10T11:27:40.785Z,15.89
2023-05-10T11:28:41.058Z,15.96
2023-05-10T11:29:40.002Z,15.95
2023-05-10T11:30:40.440Z,16.01
2023-05-10T11:31:40.208Z,16.01
2023-05-10T11:32:40.542Z,16.00
2023-05-10T11:33:40.448Z,16.01
2023-05-10T11:34:40.071Z,15.96
2023-05-10T11:35:42.964Z,15.97
2023-05-10T11:36:40.391Z,15.96
2023-05-10T11:37:40.085Z,15.96
2023-05-10T11:38:39.937Z,15.97
2023-05-10T11:39:40.599Z,15.99
2023-05-10T11:40:40.425Z,16.00
2023-05-10T11:41:41.639Z,15.99
2023-05-10T11:42:40.579Z,16.02
2023-05-10T11:43:40.349Z,16.04
2023-05-10T11:44:40.219Z,16.04
2023-05-10T11:45:40.418Z,15.98
2023-05-10T11:46:40.551Z,15.95
2023-05-10T11:47:42.635Z,15.91
2023-05-10T11:48:40.377Z,15.90
2023-05-10T11:49:40.508Z,15.91
2023-05-10T11:50:40.714Z,15.93
2023-05-10T11:52:40.430Z,16.01
2023-05-10T11:53:41.877Z,16.02
2023-05-10T11:54:41.106Z,16.02
2023-05-10T11:55:40.117Z,16.01
2023-05-10T11:56:40.641Z,16.02
2023-05-10T11:57:40.778Z,16.05
2023-05-10T11:58:41.018Z,16.05
2023-05-10T11:59:42.979Z,16.08
2023-05-10T12:00:41.139Z,16.06
2023-05-10T12:01:40.201Z,16.04
2023-05-10T12:02:40.384Z,16.00
2023-05-10T12:03:40.596Z,15.97
2023-05-10T12:04:40.318Z,15.93
2023-05-10T12:05:42.862Z,15.91
2023-05-10T12:06:39.974Z,15.92
2023-05-10T12:07:40.035Z,15.97
2023-05-10T12:08:40.031Z,15.95
2023-05-10T12:09:58.284Z,15.97
2023-05-10T12:10:40.267Z,16
2023-05-10T12:11:41.172Z,16.05
2023-05-10T12:12:40.208Z,16.04
2023-05-10T12:13:39.810Z,16.00
2023-05-10T12:14:40.879Z,15.98
2023-05-10T12:15:40.945Z,16.04
2023-05-10T12:16:41.146Z,16.07
2023-05-10T12:17:41.912Z,16.11
2023-05-10T12:18:40.637Z,16.14
2023-05-10T12:19:40.915Z,16.18
2023-05-10T12:20:41.474Z,16.18
2023-05-10T12:21:40.689Z,16.18
2023-05-10T12:22:40.454Z,16.19
2023-05-10T12:23:40.364Z,16.22
2023-05-10T12:24:40.108Z,16.23
2023-05-10T12:25:39.740Z,16.25
2023-05-10T12:26:40.813Z,16.29
2023-05-10T12:27:40.579Z,16.33
2023-05-10T12:28:40.821Z,16.39
2023-05-10T12:29:42.219Z,16.38
2023-05-10T12:30:40.978Z,16.33
2023-05-10T12:31:40.104Z,16.31
2023-05-10T12:32:48.068Z,16.32
2023-05-10T12:33:40.041Z,16.36
2023-05-10T12:34:39.891Z,16.35
2023-05-10T12:35:42.931Z,16.34
2023-05-10T12:36:48.339Z,16.35
2023-05-10T12:37:40.170Z,16.36
2023-05-10T12:38:54.099Z,16.36
2023-05-10T12:39:39.933Z,16.37
2023-05-10T12:40:54.606Z,16.37
2023-05-10T12:41:42.872Z,16.42
2023-05-10T12:42:54.267Z,16.42
2023-05-10T12:43:39.994Z,16.42
2023-05-10T12:44:54.034Z,16.35
2023-05-10T12:45:40.641Z,16.31
2023-05-10T12:46:41.324Z,16.32
2023-05-10T12:47:43.082Z,16.34
2023-05-10T12:48:40.836Z,16.32
2023-05-10T12:49:40.885Z,16.33
2023-05-10T12:50:54.950Z,16.36
2023-05-10T12:51:40.971Z,16.37
2023-05-10T12:52:40.946Z,16.37
2023-05-10T12:53:42.726Z,16.37
2023-05-10T12:54:40.557Z,16.40
2023-05-10T12:55:40.582Z,16.44
2023-05-10T12:56:40.499Z,16.46
2023-05-10T12:57:40.357Z,16.47